Time;durP1;ratioP1;P1;durP2;ratioP2;P2;SDS_P1;SDS_P2;PMS_P1;PMS_P2;Temp;Humidity;BMP_temperature;BMP_pressure;BME280_temperature;BME280_humidity;BME280_pressure;Samples;Min_cycle;Max_cycle;Signal;HPM_P1;HPM_P2
2022/07/06 00:01:29;;;;;;;1.88;1.40;;;;;;;13.59;88.42;101335.00;4940497;28;20058;-78
2022/07/06 00:03:56;;;;;;;2.25;1.40;;;;;;;13.54;87.95;101326.28;4944292;28;20114;-78
2022/07/06 00:06:23;;;;;;;2.13;1.65;;;;;;;13.52;88.12;101325.41;4937945;29;20510;-79
2022/07/06 00:08:50;;;;;;;1.83;1.52;;;;;;;13.49;88.32;101325.50;4931366;28;20043;-80
2022/07/06 00:11:17;;;;;;;2.22;1.60;;;;;;;13.50;88.34;101329.91;4941011;28;20046;-78
2022/07/06 00:13:43;;;;;;;1.90;1.38;;;;;;;13.43;89.13;101325.63;4941393;28;20035;-78
2022/07/06 00:16:10;;;;;;;1.90;1.63;;;;;;;13.40;89.80;101317.72;4934012;29;20043;-80
2022/07/06 00:18:37;;;;;;;1.98;1.77;;;;;;;13.35;90.18;101311.63;4936713;29;20039;-78
2022/07/06 00:21:04;;;;;;;2.25;1.50;;;;;;;13.27;90.47;101311.81;4946573;28;20057;-78
2022/07/06 00:23:30;;;;;;;1.95;1.70;;;;;;;13.20;90.76;101310.19;4976144;23;20764;-78
2022/07/06 00:25:57;;;;;;;2.58;1.75;;;;;;;13.11;91.89;101315.63;4962973;28;20038;-79
2022/07/06 00:28:24;;;;;;;4.10;1.70;;;;;;;12.95;93.25;101312.44;4981859;28;20058;-77
2022/07/06 00:30:52;;;;;;;2.13;1.63;;;;;;;12.90;94.12;101320.47;4949807;28;20388;-80
2022/07/06 00:33:19;;;;;;;1.75;1.30;;;;;;;12.79;94.87;101330.44;4958370;28;20530;-78
2022/07/06 00:35:46;;;;;;;1.90;1.70;;;;;;;12.71;95.28;101331.47;4955576;28;20129;-80
2022/07/06 00:38:12;;;;;;;1.90;1.50;;;;;;;12.63;96.43;101323.66;4962251;28;20043;-79
2022/07/06 00:40:39;;;;;;;2.90;2.00;;;;;;;12.57;97.31;101323.78;4956140;28;20129;-81
2022/07/06 00:43:06;;;;;;;2.55;2.05;;;;;;;12.50;97.98;101327.44;4949495;28;20816;-80
2022/07/06 00:45:33;;;;;;;1.92;1.73;;;;;;;12.42;98.56;101324.03;4954645;28;20101;-78
2022/07/06 00:47:59;;;;;;;1.60;1.45;;;;;;;12.36;99.75;101327.69;4950706;28;20062;-80
2022/07/06 00:50:28;;;;;;;2.95;1.85;;;;;;;12.31;100.00;101327.75;4964643;28;20038;-81
2022/07/06 00:52:56;;;;;;;2.25;1.88;;;;;;;12.21;100.00;101323.50;4947508;28;20070;-80
2022/07/06 00:55:25;;;;;;;2.53;1.70;;;;;;;12.14;100.00;101324.50;4949086;28;20396;-80
2022/07/06 00:57:53;;;;;;;2.67;2.10;;;;;;;12.08;100.00;101327.25;4963186;28;20043;-80
2022/07/06 01:00:22;;;;;;;2.92;2.00;;;;;;;12.04;100.00;101334.38;4950951;28;20040;-81
2022/07/06 01:02:49;;;;;;;3.40;1.83;;;;;;;11.99;100.00;101325.63;4965798;28;20045;-79
2022/07/06 01:05:16;;;;;;;2.53;1.73;;;;;;;12.00;100.00;101326.50;4964862;28;20484;-80
2022/07/06 01:07:44;;;;;;;2.67;1.70;;;;;;;11.99;100.00;101335.34;4967657;28;20042;-78
2022/07/06 01:10:13;;;;;;;1.77;1.60;;;;;;;11.99;100.00;101335.34;4953558;28;20070;-78
2022/07/06 01:12:41;;;;;;;2.63;1.60;;;;;;;11.98;100.00;101341.53;4962441;28;20332;-79
2022/07/06 01:15:13;;;;;;;2.95;1.83;;;;;;;11.98;100.00;101336.25;4961534;28;20117;-81
2022/07/06 01:17:41;;;;;;;2.92;2.13;;;;;;;11.99;100.00;101330.03;4946029;28;20042;-81
2022/07/06 01:20:14;;;;;;;2.42;1.92;;;;;;;12.09;100.00;101336.94;4931531;28;20085;-79
2022/07/06 01:22:42;;;;;;;2.42;2.10;;;;;;;12.08;100.00;101329.91;4946484;28;20049;-79
2022/07/06 01:25:09;;;;;;;3.72;1.73;;;;;;;12.10;100.00;101336.03;4977797;28;20039;-81
2022/07/06 01:27:40;;;;;;;2.95;1.85;;;;;;;12.10;100.00;101333.38;4971971;28;20050;-79
2022/07/06 01:30:09;;;;;;;2.83;2.00;;;;;;;12.17;100.00;101336.81;4946716;28;20555;-81
2022/07/06 01:32:36;;;;;;;3.10;2.08;;;;;;;12.25;100.00;101329.63;4955179;28;20097;-81
2022/07/06 01:35:05;;;;;;;2.03;1.92;;;;;;;12.32;100.00;101329.50;4964333;28;20126;-79
2022/07/06 01:37:32;;;;;;;2.97;1.92;;;;;;;12.41;100.00;101333.75;4964939;28;20034;-79
2022/07/06 01:39:59;;;;;;;3.25;2.10;;;;;;;12.42;100.00;101329.34;4949904;28;20038;-79
2022/07/06 01:42:26;;;;;;;3.65;1.92;;;;;;;12.54;100.00;101332.66;4963539;28;20034;-80
2022/07/06 01:44:54;;;;;;;3.20;2.00;;;;;;;12.55;100.00;101331.75;4949528;28;20057;-80
2022/07/06 01:47:24;;;;;;;3.55;2.00;;;;;;;12.56;100.00;101322.91;4953413;28;20077;-79
2022/07/06 01:49:51;;;;;;;2.08;1.90;;;;;;;12.59;100.00;101327.25;4965184;28;20050;-82
2022/07/06 01:52:18;;;;;;;2.25;1.83;;;;;;;12.69;100.00;101331.47;4948232;28;20044;-79
2022/07/06 01:54:44;;;;;;;2.70;1.95;;;;;;;12.67;100.00;101328.88;4979584;28;20657;-79
2022/07/06 01:57:11;;;;;;;3.90;2.00;;;;;;;12.69;100.00;101334.13;4955364;28;20495;-79
2022/07/06 01:59:38;;;;;;;2.83;1.60;;;;;;;12.71;100.00;101334.13;4958657;28;21329;-79
2022/07/06 02:02:04;;;;;;;2.85;2.25;;;;;;;12.80;100.00;101337.47;4981743;28;20042;-79
2022/07/06 02:04:31;;;;;;;4.93;2.40;;;;;;;12.75;100.00;101328.72;4953847;28;20045;-81
2022/07/06 02:06:58;;;;;;;5.63;2.80;;;;;;;12.81;100.00;101333.06;4966504;28;20066;-79
2022/07/06 02:09:25;;;;;;;3.13;1.92;;;;;;;12.83;100.00;101337.41;4954881;28;20543;-78
2022/07/06 02:11:51;;;;;;;2.95;2.00;;;;;;;12.86;100.00;101337.38;4968821;28;20503;-78
2022/07/06 02:14:18;;;;;;;4.65;2.15;;;;;;;12.87;100.00;101338.25;4987714;28;20054;-80
2022/07/06 02:16:45;;;;;;;3.85;1.60;;;;;;;12.90;100.00;101336.41;4960189;28;20554;-79
2022/07/06 02:19:12;;;;;;;2.47;1.70;;;;;;;12.92;100.00;101331.06;4956375;28;20061;-80
2022/07/06 02:21:38;;;;;;;5.28;2.38;;;;;;;12.94;100.00;101332.75;4968238;28;20045;-79
2022/07/06 02:24:05;;;;;;;4.20;2.10;;;;;;;13.07;100.00;101343.16;4956088;28;20039;-78
2022/07/06 02:26:32;;;;;;;2.22;1.90;;;;;;;13.15;100.00;101336.78;4980368;28;20045;-80
2022/07/06 02:28:58;;;;;;;2.10;1.60;;;;;;;13.14;100.00;101344.78;4965885;28;20050;-80
2022/07/06 02:31:25;;;;;;;2.10;1.60;;;;;;;13.23;99.98;101345.50;4948618;28;20045;-78
2022/07/06 02:33:52;;;;;;;2.70;1.50;;;;;;;13.29;99.35;101347.16;4968889;28;20093;-80
2022/07/06 02:36:18;;;;;;;2.47;1.67;;;;;;;13.26;100.00;101347.19;4971528;28;20054;-79
2022/07/06 02:38:45;;;;;;;2.75;1.75;;;;;;;13.26;100.00;101338.38;4949718;28;20049;-79
2022/07/06 02:41:12;;;;;;;2.33;1.77;;;;;;;13.24;100.00;101346.38;4952836;28;20038;-79
2022/07/06 02:43:39;;;;;;;3.00;1.83;;;;;;;13.25;100.00;101350.78;4981277;28;20426;-79
2022/07/06 02:46:05;;;;;;;1.80;1.48;;;;;;;13.23;100.00;101355.25;5010807;28;20072;-78
2022/07/06 02:48:32;;;;;;;2.13;1.90;;;;;;;13.30;100.00;101348.03;4981115;28;20125;-79
2022/07/06 02:50:59;;;;;;;4.47;1.73;;;;;;;13.30;99.91;101340.94;4970872;28;20034;-79
2022/07/06 02:53:25;;;;;;;2.05;1.52;;;;;;;13.35;98.98;101347.00;4973454;28;20069;-78
2022/07/06 02:55:52;;;;;;;1.95;1.60;;;;;;;13.37;98.80;101347.88;4990387;28;20042;-79
2022/07/06 02:58:19;;;;;;;2.58;1.60;;;;;;;13.39;98.88;101347.84;4974482;28;20058;-80
2022/07/06 03:00:46;;;;;;;1.60;1.50;;;;;;;13.45;98.55;101347.69;4956737;28;20034;-78
2022/07/06 03:03:12;;;;;;;3.67;1.40;;;;;;;13.49;98.31;101352.91;4991644;28;20554;-80
2022/07/06 03:05:39;;;;;;;3.08;1.65;;;;;;;13.44;98.42;101351.25;4973561;28;20038;-79
2022/07/06 03:08:06;;;;;;;5.63;2.25;;;;;;;13.45;96.78;101358.31;4975391;28;20073;-78
2022/07/06 03:10:33;;;;;;;4.80;2.03;;;;;;;13.46;96.58;101358.31;4949545;28;20707;-80
2022/07/06 03:12:59;;;;;;;3.53;1.77;;;;;;;13.46;97.10;101360.09;4972041;28;20038;-78
2022/07/06 03:15:26;;;;;;;3.65;1.70;;;;;;;13.46;97.85;101354.78;4972921;28;20065;-78
2022/07/06 03:17:53;;;;;;;3.22;1.80;;;;;;;13.46;97.19;101357.44;4992363;28;20129;-78
2022/07/06 03:20:20;;;;;;;4.43;1.95;;;;;;;13.56;95.88;101358.09;4956162;28;20043;-80
2022/07/06 03:22:46;;;;;;;1.95;1.50;;;;;;;13.54;95.08;101363.44;4978572;28;20041;-78
2022/07/06 03:25:13;;;;;;;3.13;1.70;;;;;;;13.55;94.91;101361.66;4954542;28;20129;-80
2022/07/06 03:27:40;;;;;;;2.58;1.50;;;;;;;13.50;95.43;101362.63;4955658;28;20045;-79
2022/07/06 03:30:07;;;;;;;2.45;1.50;;;;;;;13.52;95.32;101362.59;4956322;28;20377;-78
2022/07/06 03:32:39;;;;;;;2.60;2.00;;;;;;;13.52;95.18;101359.94;4969382;28;20523;-81
2022/07/06 03:35:06;;;;;;;2.20;1.33;;;;;;;13.47;95.68;101360.03;4969858;28;20043;-78
2022/07/06 03:37:33;;;;;;;2.10;1.52;;;;;;;13.44;95.60;101370.69;4990019;28;20060;-78
2022/07/06 03:40:00;;;;;;;5.15;2.65;;;;;;;13.46;95.08;101357.44;4971332;28;20038;-81
2022/07/06 03:42:26;;;;;;;1.75;1.40;;;;;;;13.36;96.14;101361.16;4961799;28;20061;-80
2022/07/06 03:44:53;;;;;;;4.25;1.95;;;;;;;13.29;96.54;101362.22;4972363;28;20049;-78
2022/07/06 03:47:20;;;;;;;10.05;2.20;;;;;;;13.25;96.43;101361.38;4957388;28;20065;-81
2022/07/06 03:49:47;;;;;;;6.35;2.05;;;;;;;13.22;96.96;101369.41;4953581;28;20051;-79
2022/07/06 03:52:14;;;;;;;3.25;1.80;;;;;;;13.16;96.98;101362.41;4967020;28;20038;-79
2022/07/06 03:54:40;;;;;;;2.95;1.77;;;;;;;13.08;97.87;101363.47;4969322;28;20451;-80
2022/07/06 03:57:07;;;;;;;3.47;2.58;;;;;;;13.08;97.27;101369.66;4955697;28;20039;-81
2022/07/06 03:59:34;;;;;;;2.22;1.80;;;;;;;12.95;98.70;101362.84;4956782;28;20411;-81
2022/07/06 04:02:00;;;;;;;2.65;1.67;;;;;;;12.91;99.11;101367.31;4970864;28;20090;-81
2022/07/06 04:04:27;;;;;;;2.03;1.63;;;;;;;12.88;99.90;101367.38;4939300;28;20054;-81
2022/07/06 04:06:54;;;;;;;2.85;2.25;;;;;;;12.88;100.00;101367.38;4964687;28;20047;-80
2022/07/06 04:09:20;;;;;;;2.17;1.60;;;;;;;12.84;100.00;101372.75;4962723;28;20043;-80
2022/07/06 04:11:47;;;;;;;1.65;1.30;;;;;;;12.81;100.00;101364.88;4963916;28;20034;-81
2022/07/06 04:14:14;;;;;;;3.15;1.77;;;;;;;12.85;100.00;101362.13;4973794;28;20415;-78
2022/07/06 04:16:40;;;;;;;2.40;1.48;;;;;;;12.77;100.00;101361.38;4940136;28;20510;-78
2022/07/06 04:19:07;;;;;;;3.78;1.90;;;;;;;12.78;100.00;101362.25;4964803;28;20465;-79
2022/07/06 04:21:34;;;;;;;1.83;1.50;;;;;;;12.88;100.00;101358.56;4954646;28;20039;-79
2022/07/06 04:24:00;;;;;;;3.35;1.77;;;;;;;12.88;100.00;101354.13;4950423;28;20050;-79
2022/07/06 04:26:27;;;;;;;2.00;1.58;;;;;;;12.93;100.00;101359.31;4971258;28;20057;-79
2022/07/06 04:28:54;;;;;;;2.53;1.55;;;;;;;12.99;100.00;101355.69;4945110;28;20049;-79
2022/07/06 04:31:20;;;;;;;3.28;2.00;;;;;;;13.04;100.00;101351.19;4941200;28;20031;-79
2022/07/06 04:33:47;;;;;;;4.40;1.67;;;;;;;13.08;100.00;101364.34;4958659;28;20043;-80
2022/07/06 04:36:14;;;;;;;3.15;1.70;;;;;;;13.17;100.00;101363.28;4973855;28;20046;-79
2022/07/06 04:38:41;;;;;;;3.80;1.70;;;;;;;13.22;100.00;101364.09;4975434;28;20058;-79
2022/07/06 04:41:07;;;;;;;2.80;1.60;;;;;;;13.29;100.00;101364.88;4987784;28;20043;-78
2022/07/06 04:43:34;;;;;;;4.00;1.92;;;;;;;13.40;100.00;101365.50;4978054;28;20046;-79
2022/07/06 04:46:01;;;;;;;3.22;1.67;;;;;;;13.49;99.55;101371.50;4967322;28;20042;-80
2022/07/06 04:48:28;;;;;;;3.13;1.73;;;;;;;13.52;100.00;101373.19;4949654;28;20050;-80
2022/07/06 04:50:54;;;;;;;3.65;2.00;;;;;;;13.70;98.30;101367.50;4955381;28;20039;-79
2022/07/06 04:53:21;;;;;;;5.45;1.90;;;;;;;13.72;97.87;101371.00;4976403;28;20052;-80
2022/07/06 04:55:48;;;;;;;2.75;1.77;;;;;;;13.76;97.64;101369.16;4960003;28;20053;-80
2022/07/06 04:58:14;;;;;;;4.00;1.80;;;;;;;13.86;96.89;101370.69;4945505;28;20052;-80
2022/07/06 05:00:41;;;;;;;3.58;1.50;;;;;;;13.95;96.74;101365.16;4950052;28;20042;-79
2022/07/06 05:03:08;;;;;;;10.57;2.60;;;;;;;14.32;94.04;101364.28;4975700;28;20130;-80
2022/07/06 05:05:34;;;;;;;2.30;1.45;;;;;;;14.44;92.58;101363.09;4964374;28;20034;-80
2022/07/06 05:08:01;;;;;;;2.45;1.55;;;;;;;14.48;92.01;101362.16;4988946;28;20049;-80
2022/07/06 05:10:28;;;;;;;2.78;1.52;;;;;;;14.43;92.35;101356.03;4968278;28;20046;-79
2022/07/06 05:12:55;;;;;;;2.80;1.50;;;;;;;14.41;92.47;101368.50;4953138;28;20042;-79
2022/07/06 05:15:22;;;;;;;3.47;1.95;;;;;;;14.52;92.05;101372.66;4974253;28;20047;-79
2022/07/06 05:17:49;;;;;;;4.13;1.88;;;;;;;14.55;91.45;101367.28;4969013;28;20524;-79
2022/07/06 05:20:15;;;;;;;3.92;1.70;;;;;;;14.77;90.20;101372.03;4974183;28;20070;-80
2022/07/06 05:22:42;;;;;;;2.10;1.60;;;;;;;14.84;89.74;101363.84;4973095;28;20041;-80
2022/07/06 05:25:12;;;;;;;3.03;1.63;;;;;;;14.93;88.72;101371.56;4969919;28;20484;-81
2022/07/06 05:27:39;;;;;;;6.75;2.92;;;;;;;14.87;88.56;101360.22;4952201;28;20042;-80
2022/07/06 05:30:06;;;;;;;3.50;2.00;;;;;;;14.93;88.34;101370.72;4958813;28;20042;-80
2022/07/06 05:32:32;;;;;;;3.47;1.67;;;;;;;15.03;87.19;101379.31;4974823;28;20036;-79
2022/07/06 05:34:59;;;;;;;4.57;1.70;;;;;;;15.01;86.47;101376.69;4957479;28;20077;-78
2022/07/06 05:37:48;;;;;;;5.28;1.75;;;;;;;15.02;87.04;101377.56;4970005;28;20042;-79
2022/07/06 05:40:14;;;;;;;2.58;1.30;;;;;;;15.19;86.71;101383.28;4953991;28;20053;-80
2022/07/06 05:42:41;;;;;;;2.85;1.40;;;;;;;15.97;81.82;101379.22;4959932;28;20042;-79
2022/07/06 05:45:08;;;;;;;5.45;1.85;;;;;;;18.12;69.65;101365.31;4948203;28;20046;-79
2022/07/06 05:50:20;;;;;;;3.28;1.60;;;;;;;22.35;52.84;101363.25;4966462;28;20411;-80
2022/07/06 05:52:58;;;;;;;3.42;1.80;;;;;;;24.33;46.44;101360.78;4984970;28;20102;-80
2022/07/06 05:55:25;;;;;;;199.88;24.13;;;;;;;25.18;43.22;101362.13;4953864;28;20105;-80
2022/07/06 05:57:53;;;;;;;9.43;2.22;;;;;;;26.14;41.26;101367.81;4945801;28;20046;-80
2022/07/06 06:00:21;;;;;;;3.42;1.45;;;;;;;26.96;38.97;101367.94;4946264;28;20049;-80
2022/07/06 06:02:48;;;;;;;3.88;1.50;;;;;;;27.72;36.61;101362.75;4975560;28;20050;-79
2022/07/06 06:05:15;;;;;;;3.20;1.30;;;;;;;27.85;35.54;101365.31;4961552;28;20568;-78
2022/07/06 06:07:51;;;;;;;3.65;1.70;;;;;;;27.73;35.73;101355.44;4960129;28;20042;-78
2022/07/06 06:10:18;;;;;;;3.38;1.10;;;;;;;27.35;37.05;101359.41;4938909;28;20046;-78
2022/07/06 06:12:46;;;;;;;2.78;1.52;;;;;;;26.83;37.93;101358.06;4990347;28;20042;-78
2022/07/06 06:15:12;;;;;;;6.05;1.98;;;;;;;26.02;39.02;101357.91;4970464;28;20046;-78
2022/07/06 06:17:39;;;;;;;1.92;1.23;;;;;;;24.94;40.09;101351.16;4959859;28;20042;-78
2022/07/06 06:20:09;;;;;;;3.30;1.63;;;;;;;23.73;42.56;101358.41;4957484;28;20039;-79
2022/07/06 06:22:50;;;;;;;2.15;1.38;;;;;;;22.85;44.83;101359.41;5038747;23;20738;-80
2022/07/06 06:25:19;;;;;;;2.70;1.15;;;;;;;22.13;46.18;101358.25;4940005;28;20090;-83
2022/07/06 06:27:46;;;;;;;3.47;1.67;;;;;;;21.74;49.00;101355.97;4937633;28;20059;-81
2022/07/06 06:30:13;;;;;;;2.85;1.17;;;;;;;21.16;49.40;101363.63;4935432;29;20051;-80
2022/07/06 06:32:40;;;;;;;1.73;1.25;;;;;;;20.55;51.30;101354.25;4940167;29;20043;-82
2022/07/06 06:35:08;;;;;;;2.85;1.20;;;;;;;19.81;52.26;101365.03;4904338;29;20051;-82
2022/07/06 06:37:35;;;;;;;2.22;1.45;;;;;;;19.88;53.37;101353.06;4929688;28;20039;-81
2022/07/06 06:40:03;;;;;;;3.58;1.40;;;;;;;19.96;54.39;101360.75;4945856;28;20094;-82
2022/07/06 06:42:30;;;;;;;2.40;1.20;;;;;;;19.90;52.34;101353.00;4940015;29;20074;-79
2022/07/06 06:44:57;;;;;;;2.50;1.42;;;;;;;19.82;55.00;101356.03;4931882;29;20102;-79
2022/07/06 06:47:24;;;;;;;3.75;1.30;;;;;;;19.56;53.92;101346.56;4937455;28;20492;-80
2022/07/06 06:49:51;;;;;;;2.95;1.48;;;;;;;19.33;55.93;101357.44;4966935;28;20046;-79
2022/07/06 06:52:18;;;;;;;2.85;1.20;;;;;;;19.39;54.09;101344.63;4950040;28;20047;-80
2022/07/06 06:55:05;;;;;;;2.58;1.10;;;;;;;19.43;55.93;101353.41;4919869;29;20126;-83
2022/07/06 06:57:32;;;;;;;5.70;1.45;;;;;;;19.26;56.10;101348.84;4940008;29;20039;-81
2022/07/06 06:59:59;;;;;;;1.58;1.17;;;;;;;19.60;55.44;101349.97;4922864;28;20058;-80
2022/07/06 07:02:26;;;;;;;1.95;1.00;;;;;;;19.55;54.58;101347.47;4917133;29;20051;-82
2022/07/06 07:04:53;;;;;;;4.25;1.45;;;;;;;19.41;53.61;101347.22;4931618;29;20736;-82
2022/07/06 07:07:20;;;;;;;2.42;1.42;;;;;;;19.68;55.69;101347.81;4952279;28;20051;-83
2022/07/06 07:09:47;;;;;;;2.35;1.45;;;;;;;19.41;55.07;101350.78;4932560;29;20611;-82
2022/07/06 07:12:16;;;;;;;4.50;1.48;;;;;;;19.65;53.84;101343.44;4938987;28;20047;-82
2022/07/06 07:14:44;;;;;;;2.53;1.30;;;;;;;19.61;53.81;101346.34;4920617;29;20471;-81
2022/07/06 07:17:11;;;;;;;5.15;1.10;;;;;;;19.61;54.09;101351.72;4917663;29;20035;-81
2022/07/06 07:19:38;;;;;;;3.15;1.20;;;;;;;19.97;53.65;101349.06;4951510;28;20074;-84
2022/07/06 07:22:05;;;;;;;2.30;1.00;;;;;;;20.23;51.98;101353.16;4907818;29;20074;-82
2022/07/06 07:24:32;;;;;;;2.60;1.30;;;;;;;20.02;51.20;101362.28;4924641;29;20044;-83
2022/07/06 07:26:59;;;;;;;2.08;1.40;;;;;;;19.96;52.51;101366.13;4919699;29;20135;-81
2022/07/06 07:29:26;;;;;;;2.75;1.10;;;;;;;19.53;52.91;101360.09;4919301;29;20048;-81
2022/07/06 07:31:53;;;;;;;1.98;1.30;;;;;;;19.39;54.02;101366.06;4934490;29;20413;-82
2022/07/06 07:34:20;;;;;;;2.83;1.67;;;;;;;19.15;55.47;101366.31;4936930;29;20559;-81
2022/07/06 07:36:47;;;;;;;4.25;1.48;;;;;;;19.40;56.33;101367.81;4955981;29;20058;-82
2022/07/06 07:39:14;;;;;;;3.10;1.20;;;;;;;19.47;55.77;101364.84;4929407;29;20051;-81
2022/07/06 07:41:40;;;;;;;3.70;1.40;;;;;;;19.70;54.77;101371.84;4945828;28;20047;-82
2022/07/06 07:44:08;;;;;;;3.42;1.50;;;;;;;19.95;54.86;101362.56;4964329;28;20047;-82
2022/07/06 07:46:35;;;;;;;8.95;2.15;;;;;;;19.87;54.69;101366.56;4978824;28;20038;-82
2022/07/06 07:49:02;;;;;;;2.85;1.40;;;;;;;19.91;54.60;101369.00;4955003;29;20067;-83
2022/07/06 07:51:28;;;;;;;2.78;1.52;;;;;;;19.84;54.19;101372.06;4930021;29;20044;-82
2022/07/06 07:53:55;;;;;;;4.43;1.40;;;;;;;19.76;52.17;101368.88;4943730;29;20147;-83
2022/07/06 07:56:22;;;;;;;1.20;1.10;;;;;;;19.55;53.69;101368.03;4945571;29;20111;-83
2022/07/06 07:58:48;;;;;;;1.33;1.17;;;;;;;19.70;52.90;101369.19;4932167;29;20051;-81
2022/07/06 08:01:15;;;;;;;84.70;12.88;;;;;;;20.21;53.80;101365.78;4947347;29;20078;-83
2022/07/06 08:03:42;;;;;;;2.05;1.17;;;;;;;20.25;50.93;101360.19;4953781;28;20074;-82
2022/07/06 08:06:09;;;;;;;2.78;1.27;;;;;;;20.46;50.33;101346.69;4951302;29;20110;-82
2022/07/06 08:08:36;;;;;;;1.55;0.82;;;;;;;21.13;50.86;101355.72;4934739;29;20086;-80
2022/07/06 08:11:02;;;;;;;1.83;1.00;;;;;;;21.39;45.95;101359.75;4930673;29;20043;-81
2022/07/06 08:13:44;;;;;;;1.85;0.90;;;;;;;21.50;46.42;101351.94;4938364;28;20042;-81
2022/07/06 08:16:10;;;;;;;3.03;1.27;;;;;;;21.42;47.17;101356.88;4951411;29;20067;-82
2022/07/06 08:18:37;;;;;;;3.75;1.00;;;;;;;21.03;46.97;101363.41;4939380;29;20054;-80
2022/07/06 08:21:05;;;;;;;4.00;1.20;;;;;;;20.75;47.13;101362.16;4954263;29;20535;-81
2022/07/06 08:23:51;;;;;;;3.30;1.05;;;;;;;20.32;48.66;101358.06;4960234;28;20066;-82
2022/07/06 08:26:18;;;;;;;1.90;1.00;;;;;;;20.01;50.54;101364.09;4942721;28;20109;-79
2022/07/06 08:28:45;;;;;;;3.38;1.00;;;;;;;19.66;50.25;101365.75;4959570;28;20058;-81
2022/07/06 08:31:12;;;;;;;1.30;0.95;;;;;;;19.60;49.41;101369.63;4957166;28;20047;-81
2022/07/06 08:33:59;;;;;;;5.63;1.08;;;;;;;19.68;50.60;101372.81;4942032;28;20045;-83
2022/07/06 08:36:26;;;;;;;1.13;0.70;;;;;;;19.77;48.10;101362.59;4931497;28;20090;-80
2022/07/06 08:38:54;;;;;;;0.70;0.70;;;;;;;19.83;50.16;101367.63;4943874;28;20053;-81
2022/07/06 08:41:26;;;;;;;349.65;45.58;;;;;;;19.93;50.13;101368.97;4925644;28;20126;-80
2022/07/06 08:43:53;;;;;;;0.88;0.70;;;;;;;19.93;49.71;101355.56;4959159;28;20039;-81
2022/07/06 08:46:21;;;;;;;0.88;0.75;;;;;;;19.79;50.92;101364.25;4942089;28;20047;-80
2022/07/06 08:48:49;;;;;;;2.17;0.95;;;;;;;19.55;49.78;101363.56;4912833;29;20055;-79
2022/07/06 08:51:16;;;;;;;1.65;1.00;;;;;;;18.95;50.71;101367.19;4954933;28;20047;-80
2022/07/06 08:53:44;;;;;;;55.78;8.80;;;;;;;18.84;52.52;101371.22;4946229;28;20046;-80
2022/07/06 08:56:12;;;;;;;3.72;0.95;;;;;;;18.54;53.14;101369.81;4951350;28;20054;-79
2022/07/06 08:58:41;;;;;;;2.97;0.75;;;;;;;18.43;54.07;101378.31;4961233;28;20043;-80
2022/07/06 09:01:12;;;;;;;17.90;2.70;;;;;;;18.34;54.92;101377.81;4952841;29;20043;-82
2022/07/06 09:03:43;;;;;;;1.70;1.00;;;;;;;18.22;55.53;101377.38;4930762;29;20040;-80
2022/07/06 09:06:11;;;;;;;2.33;1.00;;;;;;;18.08;55.68;101378.88;4927551;29;20035;-80
2022/07/06 09:08:37;;;;;;;1.95;1.00;;;;;;;18.10;56.18;101385.03;4906830;29;20047;-80
2022/07/06 09:11:04;;;;;;;2.15;1.08;;;;;;;18.03;55.76;101381.72;4918181;29;20105;-80
2022/07/06 09:13:31;;;;;;;2.63;0.90;;;;;;;18.04;55.93;101393.28;4951544;28;20130;-80
2022/07/06 09:16:12;;;;;;;1.20;0.80;;;;;;;18.10;55.82;101391.25;4903195;29;20134;-80
2022/07/06 09:18:59;;;;;;;1.55;0.90;;;;;;;18.21;56.02;101389.00;4939117;29;20043;-80
2022/07/06 09:21:32;;;;;;;0.90;0.80;;;;;;;18.46;55.96;101393.34;4934884;29;20126;-80
2022/07/06 09:24:02;;;;;;;1.73;1.00;;;;;;;18.63;55.42;101390.84;4905617;28;20054;-80
2022/07/06 09:26:29;;;;;;;2.10;1.00;;;;;;;18.81;54.30;101384.72;4935063;29;20056;-80
2022/07/06 09:28:57;;;;;;;1.50;1.08;;;;;;;18.97;54.27;101389.41;4920732;29;20047;-82
2022/07/06 09:31:24;;;;;;;2.38;1.00;;;;;;;19.68;53.29;101386.22;4927594;29;20102;-82
2022/07/06 09:34:09;;;;;;;2.85;1.00;;;;;;;20.82;51.91;101375.28;4929837;28;20050;-81
2022/07/06 09:36:43;;;;;;;1.15;0.90;;;;;;;21.81;46.67;101373.50;4943690;29;20047;-82
2022/07/06 09:39:20;;;;;;;;;;;;;;;22.56;45.52;101374.59;4915370;29;20051;-82
2022/07/06 09:41:58;;;;;;;1.05;0.75;;;;;;;22.63;44.82;101373.28;4959327;29;19937;-82
2022/07/06 09:44:37;;;;;;;1.92;0.80;;;;;;;22.45;43.41;101380.63;4928716;29;20047;-82
2022/07/06 09:47:06;;;;;;;4.32;1.35;;;;;;;21.95;44.16;101379.94;4941570;29;20047;-82
2022/07/06 09:49:33;;;;;;;1.95;0.88;;;;;;;21.17;44.65;101390.41;4923006;29;20043;-83
2022/07/06 09:52:02;;;;;;;2.05;0.80;;;;;;;20.83;46.13;101379.69;4942660;28;20058;-82
2022/07/06 09:54:29;;;;;;;1.73;0.57;;;;;;;20.59;46.54;101395.22;4921471;29;20107;-81
2022/07/06 09:56:57;;;;;;;1.55;0.75;;;;;;;19.98;46.50;101392.84;4931789;29;20051;-83
2022/07/06 09:59:26;;;;;;;1.85;1.00;;;;;;;19.47;47.76;101389.84;4938968;29;20488;-81
2022/07/06 10:01:57;;;;;;;3.03;1.10;;;;;;;19.47;49.40;101394.31;4925599;29;20035;-82
2022/07/06 10:04:26;;;;;;;2.63;0.90;;;;;;;19.23;49.43;101409.69;4931422;29;20131;-80
2022/07/06 10:06:54;;;;;;;1.38;0.93;;;;;;;19.01;50.26;101402.63;4914605;29;20058;-82
2022/07/06 10:09:24;;;;;;;1.67;0.75;;;;;;;18.67;51.62;101415.72;4933337;29;20465;-81
2022/07/06 10:11:57;;;;;;;1.83;0.90;;;;;;;18.53;52.60;101408.22;4934839;29;20322;-81
2022/07/06 10:14:29;;;;;;;3.72;1.42;;;;;;;18.37;53.67;101416.00;4935756;29;20051;-80
2022/07/06 10:16:58;;;;;;;3.65;1.20;;;;;;;18.36;54.44;101413.41;4929586;29;20047;-81
2022/07/06 10:19:26;;;;;;;9.35;2.08;;;;;;;18.36;54.40;101410.72;4943070;29;20043;-81
2022/07/06 10:21:53;;;;;;;2.90;1.13;;;;;;;18.44;54.80;101413.97;4916391;29;20035;-83
2022/07/06 10:24:20;;;;;;;0.80;0.80;;;;;;;18.44;54.22;101408.59;4945487;28;20101;-82
2022/07/06 10:26:48;;;;;;;2.28;1.00;;;;;;;18.46;55.08;101402.25;4939142;29;20039;-84
2022/07/06 10:29:15;;;;;;;4.03;1.10;;;;;;;18.63;55.10;101408.69;4939177;29;20039;-80
2022/07/06 10:31:47;;;;;;;2.33;1.23;;;;;;;18.69;54.29;101409.34;4929052;29;20047;-81
2022/07/06 10:34:16;;;;;;;2.15;1.25;;;;;;;18.95;54.81;101400.22;4930912;29;20860;-79
2022/07/06 10:36:44;;;;;;;168.32;20.38;;;;;;;19.20;53.42;101402.69;4944077;29;20055;-81
2022/07/06 10:41:57;;;;;;;2.22;0.90;;;;;;;20.09;51.07;101402.13;4935424;29;20043;-80
2022/07/06 10:44:27;;;;;;;2.10;0.90;;;;;;;20.56;48.32;101393.59;4952122;28;20035;-83
2022/07/06 10:46:55;;;;;;;1.35;0.68;;;;;;;21.00;44.80;101383.22;4925499;29;20075;-79
2022/07/06 10:49:23;;;;;;;1.80;0.80;;;;;;;21.33;45.23;101388.66;4929026;28;20400;-80
2022/07/06 10:52:10;;;;;;;1.35;0.60;;;;;;;21.62;44.29;101381.72;4929353;28;20039;-81
2022/07/06 10:54:43;;;;;;;0.80;0.73;;;;;;;21.55;43.29;101382.16;4940453;28;20039;-80
2022/07/06 10:57:10;;;;;;;0.85;0.60;;;;;;;21.98;42.48;101375.22;4932134;29;20055;-81
2022/07/06 10:59:37;;;;;;;1.42;0.80;;;;;;;22.18;43.01;101372.28;4937665;29;20039;-80
2022/07/06 11:02:19;;;;;;;0.50;0.50;;;;;;;22.41;40.94;101380.88;4940404;28;20039;-80
2022/07/06 11:04:47;;;;;;;5.00;0.90;;;;;;;22.99;40.02;101383.69;4942666;28;20043;-79
2022/07/06 11:07:16;;;;;;;0.77;0.50;;;;;;;23.05;39.12;101378.91;4900711;28;20050;-81
2022/07/06 11:09:57;;;;;;;5.20;0.88;;;;;;;22.90;40.77;101375.28;4934127;29;20690;-79
2022/07/06 11:12:25;;;;;;;25.48;4.57;;;;;;;22.77;39.31;101375.97;4920295;29;20070;-79
2022/07/06 11:14:52;;;;;;;9.98;1.98;;;;;;;22.50;41.25;101377.63;4918871;29;20101;-79
2022/07/06 11:17:20;;;;;;;1.50;0.50;;;;;;;22.22;40.96;101372.13;4920933;29;20051;-82
2022/07/06 11:20:10;;;;;;;2.85;0.88;;;;;;;21.51;42.98;101364.44;4919874;29;20061;-80
2022/07/06 11:22:38;;;;;;;2.03;0.65;;;;;;;21.32;43.46;101369.94;4928661;29;20050;-78
2022/07/06 11:25:06;;;;;;;4.18;1.20;;;;;;;21.32;43.28;101369.94;4939433;29;20062;-78
2022/07/06 11:27:36;;;;;;;3.08;1.00;;;;;;;21.52;43.63;101372.41;4929669;29;20045;-77
2022/07/06 11:30:06;;;;;;;1.30;0.60;;;;;;;21.53;43.82;101373.31;4934455;29;20046;-78
2022/07/06 11:32:35;;;;;;;1.58;0.90;;;;;;;21.49;44.33;101371.72;4920900;29;20177;-79
2022/07/06 11:35:02;;;;;;;1.52;0.77;;;;;;;21.45;44.75;101371.03;4925447;29;20106;-79